Time,TemperatureF,DewpointF,PressureIn,WindDirection,WindDirectionDegrees,WindSpeedMPH,WindSpeedGustMPH,Humidity,HourlyPrecipIn,Conditions,Clouds,dailyrainin,SoftwareType,DateUTC
2013-03-13 00:14:00,46.1,46.0,29.70,North,8,2.0,6.0,100,0.01,,,0.29,weatherlink.com 1.10,2013-03-13 04:14:00,
2013-03-13 00:29:00,44.1,44.0,29.71,NNW,342,0.0,3.0,100,0.01,,,0.29,weatherlink.com 1.10,2013-03-13 04:29:00,
2013-03-13 00:44:00,42.9,43.0,29.71,NW,318,1.0,5.0,99,0.01,,,0.29,weatherlink.com 1.10,2013-03-13 04:44:00,
2013-03-13 00:59:00,42.2,42.0,29.73,West,281,2.0,3.0,99,0.01,,,0.29,weatherlink.com 1.10,2013-03-13 04:59:00,
2013-03-13 01:14:00,41.8,41.0,29.72,NW,318,2.0,5.0,98,0.00,,,0.29,weatherlink.com 1.10,2013-03-13 05:14:00,
2013-03-13 01:29:00,41.4,41.0,29.73,NW,314,2.0,5.0,97,0.00,,,0.29,weatherlink.com 1.10,2013-03-13 05:29:00,
2013-03-13 01:44:00,41.0,40.0,29.73,NW,311,1.0,5.0,97,0.00,,,0.29,weatherlink.com 1.10,2013-03-13 05:44:00,
2013-03-13 01:59:00,40.4,40.0,29.73,NW,305,2.0,4.0,97,0.00,,,0.29,weatherlink.com 1.10,2013-03-13 05:59:00,
2013-03-13 02:14:00,40.0,39.0,29.72,WNW,300,1.0,6.0,96,0.00,,,0.29,weatherlink.com 1.10,2013-03-13 06:14:00,
2013-03-13 02:29:00,39.7,39.0,29.72,NW,314,3.0,4.0,96,0.00,,,0.29,weatherlink.com 1.10,2013-03-13 06:29:00,
2013-03-13 02:44:00,39.5,39.0,29.72,NW,314,1.0,5.0,96,0.00,,,0.29,weatherlink.com 1.10,2013-03-13 06:44:00,
2013-03-13 02:59:00,39.3,38.0,29.72,NW,304,1.0,5.0,95,0.00,,,0.29,weatherlink.com 1.10,2013-03-13 06:59:00,
2013-03-13 03:14:00,38.9,38.0,29.71,WNW,302,2.0,6.0,95,0.00,,,0.29,weatherlink.com 1.10,2013-03-13 07:14:00,
2013-03-13 03:29:00,38.7,37.0,29.71,NW,316,4.0,6.0,95,0.00,,,0.29,weatherlink.com 1.10,2013-03-13 07:29:00,
2013-03-13 03:44:00,38.3,37.0,29.72,WNW,292,2.0,7.0,94,0.00,,,0.29,weatherlink.com 1.10,2013-03-13 07:44:00,
2013-03-13 03:59:00,37.9,36.0,29.72,NNW,328,2.0,4.0,94,0.00,,,0.29,weatherlink.com 1.10,2013-03-13 07:59:00,
2013-03-13 04:14:00,37.4,36.0,29.72,West,259,0.0,4.0,95,0.00,,,0.29,weatherlink.com 1.10,2013-03-13 08:14:00,
2013-03-13 04:29:00,36.9,36.0,29.72,NW,316,0.0,3.0,95,0.00,,,0.29,weatherlink.com 1.10,2013-03-13 08:29:00,
2013-03-13 04:44:00,36.8,35.0,29.72,North,8,2.0,6.0,94,0.00,,,0.29,weatherlink.com 1.10,2013-03-13 08:44:00,
2013-03-13 04:59:00,36.7,35.0,29.71,NNW,328,1.0,6.0,93,0.00,,,0.29,weatherlink.com 1.10,2013-03-13 08:59:00,
2013-03-13 05:14:00,36.4,35.0,29.71,WNW,300,3.0,5.0,93,0.00,,,0.29,weatherlink.com 1.10,2013-03-13 09:14:00,
2013-03-13 05:29:00,36.1,35.0,29.73,NNW,328,2.0,6.0,94,0.00,,,0.29,weatherlink.com 1.10,2013-03-13 09:29:00,
2013-03-13 05:44:00,36.1,35.0,29.72,WNW,293,1.0,8.0,94,0.00,,,0.29,weatherlink.com 1.10,2013-03-13 09:44:00,
2013-03-13 05:59:00,35.9,34.0,29.73,NNW,346,1.0,7.0,94,0.00,,,0.29,weatherlink.com 1.10,2013-03-13 09:59:00,
2013-03-13 06:14:00,35.7,34.0,29.73,WNW,300,3.0,8.0,94,0.00,,,0.29,weatherlink.com 1.10,2013-03-13 10:14:00,
2013-03-13 06:30:00,35.5,34.0,29.73,NW,311,1.0,5.0,94,0.00,,,0.29,weatherlink.com 1.10,2013-03-13 10:30:00,
2013-03-13 06:45:00,35.1,34.0,29.73,North,353,2.0,5.0,94,0.00,,,0.29,weatherlink.com 1.10,2013-03-13 10:45:00,
2013-03-13 07:00:00,35.1,34.0,29.72,NNW,344,2.0,7.0,94,0.00,,,0.29,weatherlink.com 1.10,2013-03-13 11:00:00,
2013-03-13 07:15:00,34.9,33.0,29.72,NW,304,2.0,6.0,94,0.00,,,0.29,weatherlink.com 1.10,2013-03-13 11:15:00,
2013-03-13 07:30:00,35.0,33.0,29.72,NW,305,4.0,7.0,93,0.00,,,0.29,weatherlink.com 1.10,2013-03-13 11:30:00,
2013-03-13 07:45:00,35.2,33.0,29.71,NW,319,3.0,6.0,92,0.00,,,0.29,weatherlink.com 1.10,2013-03-13 11:45:00,
2013-03-13 08:00:00,35.6,33.0,29.71,WNW,298,4.0,8.0,90,0.00,,,0.29,weatherlink.com 1.10,2013-03-13 12:00:00,
2013-03-13 08:15:00,36.0,33.0,29.71,NNW,332,2.0,8.0,89,0.00,,,0.29,weatherlink.com 1.10,2013-03-13 12:15:00,
2013-03-13 08:30:00,36.4,33.0,29.71,West,280,1.0,7.0,88,0.00,,,0.29,weatherlink.com 1.10,2013-03-13 12:30:00,
2013-03-13 08:45:00,37.1,33.0,29.71,ENE,70,2.0,8.0,86,0.00,,,0.29,weatherlink.com 1.10,2013-03-13 12:45:00,
2013-03-13 09:00:00,37.7,34.0,29.71,NNW,330,1.0,8.0,85,0.00,,,0.29,weatherlink.com 1.10,2013-03-13 13:00:00,
2013-03-13 09:15:00,38.5,34.0,29.72,NW,323,4.0,7.0,83,0.00,,,0.29,weatherlink.com 1.10,2013-03-13 13:15:00,
2013-03-13 09:30:00,39.5,34.0,29.71,NW,322,2.0,6.0,81,0.00,,,0.29,weatherlink.com 1.10,2013-03-13 13:30:00,
2013-03-13 09:45:00,40.3,34.0,29.71,NW,318,1.0,6.0,79,0.00,,,0.29,weatherlink.com 1.10,2013-03-13 13:45:00,
2013-03-13 10:00:00,40.8,34.0,29.71,NW,316,0.0,6.0,78,0.00,,,0.29,weatherlink.com 1.10,2013-03-13 14:00:00,
2013-03-13 10:15:00,41.6,34.0,29.71,NNW,335,1.0,9.0,75,0.00,,,0.29,weatherlink.com 1.10,2013-03-13 14:15:00,
2013-03-13 10:30:00,42.5,35.0,29.71,NNE,16,0.0,4.0,74,0.00,,,0.29,weatherlink.com 1.10,2013-03-13 14:30:00,
2013-03-13 10:45:00,42.6,34.0,29.71,NE,53,2.0,7.0,72,0.00,,,0.29,weatherlink.com 1.10,2013-03-13 14:45:00,
2013-03-13 11:00:00,43.0,34.0,29.71,ENE,78,2.0,7.0,71,0.00,,,0.29,weatherlink.com 1.10,2013-03-13 15:00:00,
2013-03-13 11:15:00,43.3,34.0,29.70,WNW,287,1.0,7.0,70,0.00,,,0.29,weatherlink.com 1.10,2013-03-13 15:15:00,
2013-03-13 11:30:00,43.8,34.0,29.70,WNW,300,1.0,5.0,69,0.00,,,0.29,weatherlink.com 1.10,2013-03-13 15:30:00,
2013-03-13 11:45:00,44.0,33.0,29.70,North,358,3.0,7.0,66,0.00,,,0.29,weatherlink.com 1.10,2013-03-13 15:45:00,
2013-03-13 12:00:00,44.2,33.0,29.71,NNW,337,5.0,8.0,65,0.00,,,0.29,weatherlink.com 1.10,2013-03-13 16:00:00,
2013-03-13 12:15:00,44.7,33.0,29.71,NNW,345,4.0,10.0,63,0.00,,,0.29,weatherlink.com 1.10,2013-03-13 16:15:00,
2013-03-13 12:30:00,44.8,32.0,29.70,NW,308,4.0,10.0,61,0.00,,,0.29,weatherlink.com 1.10,2013-03-13 16:30:00,
2013-03-13 12:45:00,45.1,33.0,29.70,NW,313,5.0,7.0,62,0.00,,,0.29,weatherlink.com 1.10,2013-03-13 16:45:00,
2013-03-13 13:00:00,45.5,32.0,29.70,NNE,12,4.0,6.0,60,0.00,,,0.29,weatherlink.com 1.10,2013-03-13 17:00:00,
2013-03-13 13:15:00,46.5,31.0,29.70,NNE,26,3.0,6.0,56,0.00,,,0.29,weatherlink.com 1.10,2013-03-13 17:15:00,
2013-03-13 13:30:00,45.3,31.0,29.70,NNW,332,2.0,9.0,58,0.00,,,0.29,weatherlink.com 1.10,2013-03-13 17:30:00,
2013-03-13 13:45:00,45.9,31.0,29.69,ENE,78,2.0,5.0,56,0.00,,,0.29,weatherlink.com 1.10,2013-03-13 17:45:00,
2013-03-13 14:00:00,45.3,30.0,29.69,WNW,295,2.0,8.0,56,0.00,,,0.29,weatherlink.com 1.10,2013-03-13 18:00:00,
2013-03-13 14:15:00,45.4,30.0,29.69,NW,307,2.0,6.0,56,0.00,,,0.29,weatherlink.com 1.10,2013-03-13 18:15:00,
2013-03-13 14:30:00,45.5,30.0,29.69,WNW,300,2.0,8.0,55,0.00,,,0.29,weatherlink.com 1.10,2013-03-13 18:30:00,
2013-03-13 14:45:00,44.9,28.0,29.68,West,273,2.0,7.0,52,0.00,,,0.29,weatherlink.com 1.10,2013-03-13 18:45:00,
2013-03-13 15:00:00,44.5,29.0,29.68,NW,309,3.0,4.0,55,0.00,,,0.29,weatherlink.com 1.10,2013-03-13 19:00:00,
2013-03-13 15:15:00,45.9,28.0,29.67,NNE,26,4.0,6.0,50,0.00,,,0.29,weatherlink.com 1.10,2013-03-13 19:15:00,
2013-03-13 15:30:00,45.0,28.0,29.68,NNE,27,3.0,5.0,52,0.00,,,0.29,weatherlink.com 1.10,2013-03-13 19:30:00,
2013-03-13 15:45:00,44.5,27.0,29.68,East,84,1.0,5.0,51,0.00,,,0.29,weatherlink.com 1.10,2013-03-13 19:45:00,
2013-03-13 16:00:00,45.1,27.0,29.68,WNW,300,1.0,9.0,50,0.00,,,0.29,weatherlink.com 1.10,2013-03-13 20:00:00,
2013-03-13 16:15:00,44.1,27.0,29.68,WNW,284,2.0,7.0,51,0.00,,,0.29,weatherlink.com 1.10,2013-03-13 20:15:00,
2013-03-13 16:30:00,44.1,26.0,29.69,NW,305,4.0,8.0,49,0.00,,,0.29,weatherlink.com 1.10,2013-03-13 20:30:00,
2013-03-13 16:45:00,43.6,25.0,29.69,NNE,12,6.0,7.0,49,0.00,,,0.29,weatherlink.com 1.10,2013-03-13 20:45:00,
2013-03-13 17:00:00,43.2,25.0,29.69,West,281,2.0,6.0,49,0.00,,,0.29,weatherlink.com 1.10,2013-03-13 21:00:00,
2013-03-13 17:15:00,43.0,24.0,29.69,NW,325,2.0,5.0,48,0.00,,,0.29,weatherlink.com 1.10,2013-03-13 21:15:00,
2013-03-13 17:30:00,42.7,25.0,29.69,NNW,329,2.0,5.0,49,0.00,,,0.29,weatherlink.com 1.10,2013-03-13 21:30:00,
2013-03-13 17:45:00,42.2,24.0,29.69,NW,322,3.0,6.0,49,0.00,,,0.29,weatherlink.com 1.10,2013-03-13 21:45:00,
2013-03-13 18:00:00,41.7,23.0,29.69,NNW,327,0.0,6.0,48,0.00,,,0.29,weatherlink.com 1.10,2013-03-13 22:00:00,
2013-03-13 18:15:00,41.2,23.0,29.70,WNW,285,1.0,4.0,49,0.00,,,0.29,weatherlink.com 1.10,2013-03-13 22:15:00,
2013-03-13 18:30:00,40.7,23.0,29.70,NW,314,0.0,4.0,50,0.00,,,0.29,weatherlink.com 1.10,2013-03-13 22:30:00,
2013-03-13 18:45:00,40.1,23.0,29.70,NW,312,2.0,4.0,51,0.00,,,0.29,weatherlink.com 1.10,2013-03-13 22:45:00,
2013-03-13 19:00:00,39.7,23.0,29.71,NW,321,0.0,2.0,51,0.00,,,0.00,weatherlink.com 1.10,2013-03-13 23:00:00,
2013-03-13 19:15:00,38.9,23.0,29.71,NW,317,1.0,1.0,53,0.00,,,0.00,weatherlink.com 1.10,2013-03-13 23:15:00,
2013-03-13 19:30:00,38.4,23.0,29.71,NW,314,0.0,2.0,54,0.00,,,0.00,weatherlink.com 1.10,2013-03-13 23:30:00,
2013-03-13 19:45:00,37.9,23.0,29.72,NW,321,1.0,2.0,55,0.00,,,0.00,weatherlink.com 1.10,2013-03-13 23:45:00,
2013-03-13 20:00:00,37.3,23.0,29.72,NW,307,0.0,2.0,56,0.00,,,0.00,weatherlink.com 1.10,2013-03-14 00:00:00,
2013-03-13 20:16:00,37.3,23.0,29.72,NNW,328,1.0,4.0,57,0.00,,,0.00,weatherlink.com 1.10,2013-03-14 00:16:00,
2013-03-13 20:31:00,37.1,23.0,29.73,WNW,297,1.0,2.0,57,0.00,,,0.00,weatherlink.com 1.10,2013-03-14 00:31:00,
2013-03-13 20:46:00,36.8,23.0,29.74,NW,309,1.0,1.0,58,0.00,,,0.00,weatherlink.com 1.10,2013-03-14 00:46:00,
2013-03-13 21:01:00,36.5,23.0,29.74,NW,318,1.0,2.0,59,0.00,,,0.00,weatherlink.com 1.10,2013-03-14 01:01:00,
2013-03-13 22:31:00,32.6,24.0,29.74,NW,319,0.0,0.0,70,0.00,,,0.00,weatherlink.com 1.10,2013-03-14 02:31:00,
2013-03-13 22:46:00,31.7,24.0,29.74,NW,319,0.0,1.0,72,0.00,,,0.00,weatherlink.com 1.10,2013-03-14 02:46:00,
2013-03-13 23:01:00,31.2,23.0,29.74,NW,311,0.0,1.0,73,0.00,,,0.00,weatherlink.com 1.10,2013-03-14 03:01:00,
2013-03-13 23:15:00,32.4,24.0,29.73,NW,315,2.0,2.0,70,0.00,,,0.00,weatherlink.com 1.10,2013-03-14 03:15:00,
2013-03-13 23:30:00,33.1,24.0,29.73,NW,314,1.0,2.0,69,0.00,,,0.00,weatherlink.com 1.10,2013-03-14 03:30:00,
2013-03-13 23:45:00,32.7,24.0,29.73,NW,319,1.0,1.0,70,0.00,,,0.00,weatherlink.com 1.10,2013-03-14 03:45:00,